createdAt,value
2022-09-04T00:00:33.183Z,18.9
2022-09-04T00:01:35.193Z,18.9
2022-09-04T00:02:38.418Z,18.9
2022-09-04T00:03:40.260Z,18.9
2022-09-04T00:04:42.408Z,18.9
2022-09-04T00:05:44.148Z,18.8
2022-09-04T00:06:46.336Z,18.9
2022-09-04T00:07:48.106Z,18.9
2022-09-04T00:08:49.300Z,18.9
2022-09-04T00:09:51.136Z,18.9
2022-09-04T00:10:53.299Z,18.9
2022-09-04T00:11:55.181Z,18.9
2022-09-04T00:12:57.297Z,18.9
2022-09-04T00:13:59.067Z,18.9
2022-09-04T00:15:00.532Z,18.9
2022-09-04T00:16:02.237Z,18.9
2022-09-04T00:17:05.762Z,18.9
2022-09-04T00:18:08.968Z,18.9
2022-09-04T00:19:11.400Z,18.9
2022-09-04T00:20:13.640Z,18.9
2022-09-04T00:21:16.398Z,18.9
2022-09-04T00:22:19.201Z,18.9
2022-09-04T00:23:21.127Z,18.9
2022-09-04T00:24:23.182Z,18.9
2022-09-04T00:25:25.115Z,18.9
2022-09-04T00:26:27.358Z,18.8
2022-09-04T00:27:29.123Z,18.8
2022-09-04T00:28:31.114Z,18.8
2022-09-04T00:29:32.286Z,18.8
2022-09-04T00:30:35.328Z,18.8
2022-09-04T00:31:39.117Z,18.9
2022-09-04T00:32:40.224Z,18.9
2022-09-04T00:33:43.083Z,18.8
2022-09-04T00:34:46.343Z,18.8
2022-09-04T00:35:48.093Z,18.8
2022-09-04T00:36:50.320Z,18.7
2022-09-04T00:37:51.581Z,18.7
2022-09-04T00:38:53.408Z,18.7
2022-09-04T00:39:55.382Z,18.7
2022-09-04T00:40:57.248Z,18.6
2022-09-04T00:41:59.107Z,18.6
2022-09-04T00:43:00.404Z,18.5
2022-09-04T00:44:02.210Z,18.4
2022-09-04T00:45:04.341Z,18.3
2022-09-04T00:46:06.281Z,18.3
2022-09-04T00:47:08.179Z,18.3
2022-09-04T00:48:10.806Z,18.4
2022-09-04T00:49:12.300Z,18.4
2022-09-04T00:50:14.275Z,18.4
2022-09-04T00:51:16.361Z,18.4
2022-09-04T00:52:18.395Z,18.5
2022-09-04T00:53:20.375Z,18.5
2022-09-04T00:54:22.388Z,18.5
2022-09-04T00:55:24.409Z,18.5
2022-09-04T00:56:26.470Z,18.5
2022-09-04T00:57:28.485Z,18.4
2022-09-04T00:58:30.395Z,18.4
2022-09-04T00:59:32.403Z,18.3
2022-09-04T01:00:34.260Z,18.3
2022-09-04T01:01:36.647Z,18.3
2022-09-04T01:02:38.726Z,18.3
2022-09-04T01:03:40.473Z,18.4
2022-09-04T01:04:42.331Z,18.4
2022-09-04T01:05:44.321Z,18.4
2022-09-04T01:06:46.385Z,18.4
2022-09-04T01:07:48.576Z,18.3
2022-09-04T01:08:50.240Z,18.3
2022-09-04T01:09:52.352Z,18.4
2022-09-04T01:10:54.233Z,18.4
2022-09-04T01:11:56.163Z,18.4
2022-09-04T01:12:57.638Z,18.4
2022-09-04T01:13:59.376Z,18.3
2022-09-04T01:15:01.214Z,18.3
2022-09-04T01:16:02.259Z,18.3
2022-09-04T01:17:03.157Z,18.2
2022-09-04T01:18:04.237Z,18.2
2022-09-04T01:19:05.261Z,18.1
2022-09-04T01:20:07.171Z,18.1
2022-09-04T01:21:08.179Z,18.1
2022-09-04T01:22:09.158Z,18.1
2022-09-04T01:23:10.172Z,18.1
2022-09-04T01:24:11.236Z,18.1
2022-09-04T01:25:12.203Z,18.1
2022-09-04T01:26:13.216Z,18.1
2022-09-04T01:27:14.207Z,18.1
2022-09-04T01:28:15.188Z,18.1
2022-09-04T01:29:16.226Z,18
2022-09-04T01:30:17.219Z,18
2022-09-04T01:31:18.259Z,18
2022-09-04T01:32:19.211Z,18
2022-09-04T01:33:20.183Z,18
2022-09-04T01:34:21.194Z,18.1
2022-09-04T01:35:22.215Z,18.1
2022-09-04T01:36:23.247Z,18.1
2022-09-04T01:37:24.196Z,18.1
2022-09-04T01:38:25.329Z,18.1
2022-09-04T01:39:26.270Z,18.1
2022-09-04T01:40:34.100Z,18.1
2022-09-04T01:41:28.263Z,18.1
2022-09-04T01:42:29.220Z,18.1
2022-09-04T01:43:30.204Z,18
2022-09-04T01:44:31.201Z,18
2022-09-04T01:45:32.251Z,18
2022-09-04T01:46:33.236Z,18
2022-09-04T01:47:34.215Z,18.1
2022-09-04T01:48:35.214Z,18.1
2022-09-04T01:49:36.211Z,18
2022-09-04T01:50:37.216Z,18
2022-09-04T01:51:38.612Z,18
2022-09-04T01:52:40.239Z,17.9
2022-09-04T01:53:41.236Z,17.9
2022-09-04T01:54:42.212Z,17.9
2022-09-04T01:55:43.211Z,17.8
2022-09-04T01:56:44.261Z,17.8
2022-09-04T01:57:45.283Z,17.9
2022-09-04T01:58:46.220Z,17.8
2022-09-04T01:59:49.720Z,17.8
2022-09-04T02:00:48.256Z,17.8
2022-09-04T02:01:49.319Z,17.7
2022-09-04T02:02:52.098Z,17.7
2022-09-04T02:03:51.277Z,17.8
2022-09-04T02:04:52.232Z,17.8
2022-09-04T02:05:53.243Z,17.8
2022-09-04T02:06:54.232Z,17.8
2022-09-04T02:07:55.230Z,17.8
2022-09-04T02:08:56.269Z,17.8
2022-09-04T02:09:57.231Z,17.8
2022-09-04T02:10:58.239Z,17.8
2022-09-04T02:11:59.247Z,17.8
2022-09-04T02:13:00.237Z,17.8
2022-09-04T02:14:01.329Z,17.8
2022-09-04T02:15:02.425Z,17.8
2022-09-04T02:16:04.310Z,17.8
2022-09-04T02:17:05.249Z,17.8
2022-09-04T02:18:06.318Z,17.7
2022-09-04T02:19:07.248Z,17.7
2022-09-04T02:20:08.259Z,17.8
2022-09-04T02:21:09.251Z,17.7
2022-09-04T02:22:10.262Z,17.7
2022-09-04T02:23:11.331Z,17.7
2022-09-04T02:24:12.257Z,17.7
2022-09-04T02:25:13.261Z,17.7
2022-09-04T02:26:14.280Z,17.7
2022-09-04T02:27:15.263Z,17.7
2022-09-04T02:28:16.347Z,17.7
2022-09-04T02:29:17.277Z,17.7
2022-09-04T02:30:18.283Z,17.7
2022-09-04T02:31:19.300Z,17.6
2022-09-04T02:32:20.320Z,17.6
2022-09-04T02:33:21.332Z,17.6
2022-09-04T02:34:22.273Z,17.6
2022-09-04T02:35:23.283Z,17.6
2022-09-04T02:36:24.279Z,17.6
2022-09-04T02:37:25.291Z,17.6
2022-09-04T02:38:26.389Z,17.6
2022-09-04T02:39:27.326Z,17.6
2022-09-04T02:40:28.282Z,17.6
2022-09-04T02:41:29.289Z,17.6
2022-09-04T02:42:30.313Z,17.6
2022-09-04T02:43:31.368Z,17.6
2022-09-04T02:44:32.310Z,17.6
2022-09-04T02:45:33.317Z,17.5
2022-09-04T02:46:34.428Z,17.5
2022-09-04T02:47:35.299Z,17.5
2022-09-04T02:48:36.326Z,17.5
2022-09-04T02:49:37.399Z,17.4
2022-09-04T02:50:39.308Z,17.5
2022-09-04T02:51:40.337Z,17.5
2022-09-04T02:52:41.305Z,17.5
2022-09-04T02:53:42.302Z,17.5
2022-09-04T02:54:43.309Z,17.5
2022-09-04T02:55:44.338Z,17.6
2022-09-04T02:56:45.311Z,17.6
2022-09-04T02:57:46.305Z,17.5
2022-09-04T02:58:47.310Z,17.5
2022-09-04T02:59:48.315Z,17.5
2022-09-04T03:00:49.391Z,17.5
2022-09-04T03:01:50.521Z,17.5
2022-09-04T03:02:51.319Z,17.5
2022-09-04T03:03:52.330Z,17.5
2022-09-04T03:04:53.323Z,17.5
2022-09-04T03:05:54.383Z,17.5
2022-09-04T03:06:55.318Z,17.5
2022-09-04T03:07:56.328Z,17.5
2022-09-04T03:08:57.359Z,17.4
2022-09-04T03:09:58.335Z,17.3
2022-09-04T03:10:59.364Z,17.2
2022-09-04T03:12:00.355Z,17.3
2022-09-04T03:13:01.380Z,17.3
2022-09-04T03:14:02.392Z,17.2
2022-09-04T03:15:03.357Z,17.3
2022-09-04T03:16:04.384Z,17.2
2022-09-04T03:17:05.402Z,17.2
2022-09-04T03:18:06.367Z,17.2
2022-09-04T03:19:08.639Z,17.2
2022-09-04T03:20:08.355Z,17.1
2022-09-04T03:21:09.353Z,17.1
2022-09-04T03:22:10.353Z,17.1
2022-09-04T03:23:11.467Z,17.1
2022-09-04T03:24:12.349Z,17
2022-09-04T03:25:13.354Z,17
2022-09-04T03:26:14.351Z,17
2022-09-04T03:27:15.421Z,17
2022-09-04T03:28:16.358Z,17
2022-09-04T03:29:17.349Z,17
2022-09-04T03:30:18.403Z,17
2022-09-04T03:31:19.416Z,16.9
2022-09-04T03:32:20.394Z,16.8
2022-09-04T03:33:21.362Z,16.8
2022-09-04T03:34:22.370Z,16.8
2022-09-04T03:35:23.523Z,16.8
2022-09-04T03:36:24.368Z,16.9
2022-09-04T03:37:25.369Z,17
2022-09-04T03:38:26.372Z,17
2022-09-04T03:39:27.419Z,17
2022-09-04T03:40:28.571Z,17.1
2022-09-04T03:41:30.389Z,17.1
2022-09-04T03:42:31.383Z,17.1
2022-09-04T03:43:32.383Z,17.2
2022-09-04T03:44:33.385Z,17.2
2022-09-04T03:45:34.438Z,17.3
2022-09-04T03:46:35.411Z,17.2
2022-09-04T03:47:36.380Z,17.2
2022-09-04T03:48:37.440Z,17.2
2022-09-04T03:49:38.462Z,17.2
2022-09-04T03:50:39.456Z,17.2
2022-09-04T03:51:40.408Z,17.2
2022-09-04T03:52:41.685Z,17.2
2022-09-04T03:53:43.393Z,17.1
2022-09-04T03:54:44.434Z,17.1
2022-09-04T03:55:45.449Z,17.2
2022-09-04T03:56:46.427Z,17.2
2022-09-04T03:57:47.398Z,17.2
2022-09-04T03:58:48.402Z,17.2
2022-09-04T03:59:49.435Z,17.2
2022-09-04T04:00:50.504Z,17.2
2022-09-04T04:01:51.441Z,17.2
2022-09-04T04:02:52.526Z,17.2
2022-09-04T04:03:53.407Z,17.3
2022-09-04T04:04:54.412Z,17.3
2022-09-04T04:05:55.448Z,17.3
2022-09-04T04:06:56.424Z,17.2
2022-09-04T04:07:58.532Z,17.2
2022-09-04T04:09:00.443Z,17.2
2022-09-04T04:10:01.564Z,17.1
2022-09-04T04:11:03.458Z,17.1
2022-09-04T04:12:04.445Z,17.1
2022-09-04T04:13:05.426Z,17.1
2022-09-04T04:14:06.436Z,17.1
2022-09-04T04:15:07.450Z,17.1
2022-09-04T04:16:08.557Z,17.1
2022-09-04T04:17:12.673Z,17.1
2022-09-04T04:18:10.480Z,17.1
2022-09-04T04:19:11.430Z,17.1
2022-09-04T04:20:12.472Z,17
2022-09-04T04:21:13.436Z,16.9
2022-09-04T04:22:14.528Z,16.8
2022-09-04T04:23:16.457Z,16.8
2022-09-04T04:24:17.445Z,16.9
2022-09-04T04:25:18.440Z,17
2022-09-04T04:26:19.480Z,17
2022-09-04T04:27:20.472Z,17
2022-09-04T04:28:21.443Z,17
2022-09-04T04:29:22.466Z,17
2022-09-04T04:30:23.459Z,17
2022-09-04T04:31:24.525Z,17.1
2022-09-04T04:32:25.450Z,17.1
2022-09-04T04:33:26.504Z,17.1
2022-09-04T04:34:27.498Z,17.2
2022-09-04T04:35:28.500Z,17.2
2022-09-04T04:36:29.521Z,17.2
2022-09-04T04:37:30.481Z,17.1
2022-09-04T04:38:31.475Z,17.1
2022-09-04T04:39:32.533Z,17.1
2022-09-04T04:40:34.494Z,17.1
2022-09-04T04:41:35.508Z,17.1
2022-09-04T04:42:36.494Z,17.1
2022-09-04T04:43:37.477Z,17.1
2022-09-04T04:44:38.508Z,17.1
2022-09-04T04:45:39.499Z,17.2
2022-09-04T04:46:40.528Z,17.2
2022-09-04T04:47:42.520Z,17.2
2022-09-04T04:48:43.473Z,17.2
2022-09-04T04:49:44.496Z,17.3
2022-09-04T04:50:45.481Z,17.4
2022-09-04T04:51:46.492Z,17.4
2022-09-04T04:52:47.530Z,17.5
2022-09-04T04:53:48.488Z,17.6
2022-09-04T04:54:49.515Z,17.6
2022-09-04T04:55:50.492Z,17.7
2022-09-04T04:56:51.493Z,17.7
2022-09-04T04:57:52.532Z,17.8
2022-09-04T04:58:53.514Z,17.9
2022-09-04T04:59:54.547Z,18
2022-09-04T05:00:55.501Z,18.1
2022-09-04T05:01:56.675Z,18
2022-09-04T05:02:57.563Z,18.1
2022-09-04T05:03:58.498Z,18.1
2022-09-04T05:04:59.545Z,18.1
2022-09-04T05:06:00.501Z,18.1
2022-09-04T05:08:07.633Z,17.9
2022-09-04T05:09:04.509Z,17.9
2022-09-04T05:10:05.976Z,17.8
2022-09-04T05:11:07.514Z,17.8
2022-09-04T05:12:08.508Z,17.9
2022-09-04T05:13:09.518Z,17.7
2022-09-04T05:14:10.517Z,17.7
2022-09-04T05:15:11.541Z,17.6
2022-09-04T05:16:18.087Z,17.7
2022-09-04T05:17:13.596Z,17.7
2022-09-04T05:18:14.522Z,17.8
2022-09-04T05:19:15.527Z,17.8
2022-09-04T05:20:16.543Z,17.9
2022-09-04T05:21:17.592Z,17.8
2022-09-04T05:22:18.526Z,17.9
2022-09-04T05:23:19.558Z,18
2022-09-04T05:24:20.906Z,18
2022-09-04T05:25:21.539Z,18.1
2022-09-04T05:26:22.563Z,18
2022-09-04T05:27:23.590Z,18
2022-09-04T05:28:24.666Z,18
2022-09-04T05:29:28.195Z,18
2022-09-04T05:30:26.551Z,18.1
2022-09-04T05:31:27.593Z,18.3
2022-09-04T05:32:28.606Z,18.5
2022-09-04T05:33:29.559Z,18.7
2022-09-04T05:34:30.547Z,19
2022-09-04T05:35:31.860Z,19.4
2022-09-04T05:36:32.556Z,19.9
2022-09-04T05:37:33.587Z,20.4
2022-09-04T05:38:34.573Z,20.8
2022-09-04T05:39:35.634Z,21.1
2022-09-04T05:40:36.563Z,21.4
2022-09-04T05:41:37.557Z,21.6
2022-09-04T05:42:38.563Z,21.8
2022-09-04T05:43:39.586Z,22
2022-09-04T05:44:40.567Z,22.1
2022-09-04T05:45:41.564Z,22.2
2022-09-04T05:46:42.660Z,22.5
2022-09-04T05:47:43.584Z,22.5
2022-09-04T05:48:44.612Z,22.6
2022-09-04T05:49:45.569Z,22.7
2022-09-04T05:50:46.589Z,22.8
2022-09-04T05:51:47.630Z,23
2022-09-04T05:52:48.572Z,23.1
2022-09-04T05:53:49.594Z,23.4
2022-09-04T05:54:50.592Z,23.8
2022-09-04T05:55:51.606Z,24.2
2022-09-04T05:56:52.579Z,24.5
2022-09-04T05:57:53.583Z,24.8
2022-09-04T05:58:54.614Z,25.2
2022-09-04T05:59:55.597Z,25.4
2022-09-04T06:00:56.628Z,25.6
2022-09-04T06:01:57.661Z,25.7
2022-09-04T06:02:58.647Z,25.6
2022-09-04T06:03:59.624Z,25.6
2022-09-04T06:05:00.588Z,25.3
2022-09-04T06:06:01.636Z,24.9
2022-09-04T06:07:02.664Z,24.9
2022-09-04T06:08:03.650Z,25.1
2022-09-04T06:09:04.599Z,25.4
2022-09-04T06:10:05.639Z,25.1
2022-09-04T06:11:06.606Z,25
2022-09-04T06:12:07.635Z,24.8
2022-09-04T06:13:08.622Z,24.6
2022-09-04T06:14:09.610Z,24.5
2022-09-04T06:15:10.620Z,24.6
2022-09-04T06:16:11.674Z,24.9
2022-09-04T06:17:12.637Z,25.1
2022-09-04T06:18:13.646Z,25.3
2022-09-04T06:19:14.617Z,25.5
2022-09-04T06:20:15.637Z,25.5
2022-09-04T06:21:16.695Z,25.6
2022-09-04T06:22:17.659Z,25.3
2022-09-04T06:23:18.676Z,25.4
2022-09-04T06:24:19.620Z,25.5
2022-09-04T06:25:20.658Z,25.7
2022-09-04T06:26:21.664Z,25.8
2022-09-04T06:27:22.667Z,25.7
2022-09-04T06:28:23.730Z,25.6
2022-09-04T06:29:25.641Z,25.5
2022-09-04T06:30:26.644Z,25.8
2022-09-04T06:31:27.703Z,26
2022-09-04T06:32:28.669Z,26.3
2022-09-04T06:33:29.667Z,26.3
2022-09-04T06:34:30.667Z,26.5
2022-09-04T06:35:38.403Z,26.4
2022-09-04T06:36:39.698Z,26.1
2022-09-04T06:37:41.652Z,25.9
2022-09-04T06:38:42.656Z,25.6
2022-09-04T06:39:45.763Z,25.3
2022-09-04T06:40:51.241Z,25.4
2022-09-04T06:41:55.962Z,25.8
2022-09-04T06:42:57.693Z,25.9
2022-09-04T06:43:58.670Z,26
2022-09-04T06:44:59.697Z,26.1
2022-09-04T06:46:02.569Z,26.1
2022-09-04T06:47:02.667Z,26
2022-09-04T06:48:03.665Z,25.6
2022-09-04T06:49:04.728Z,25.3
2022-09-04T06:50:05.757Z,25
2022-09-04T06:51:07.695Z,24.9
2022-09-04T06:52:08.699Z,24.7
2022-09-04T06:53:09.673Z,24.4
2022-09-04T06:54:10.778Z,24.3
2022-09-04T06:55:12.683Z,24.4
2022-09-04T06:56:13.704Z,24.4
2022-09-04T06:57:14.680Z,24.8
2022-09-04T06:58:15.689Z,25.1
2022-09-04T06:59:21.888Z,25.4
2022-09-04T07:00:23.711Z,25.7
2022-09-04T07:01:26.834Z,26
2022-09-04T07:02:30.740Z,26.4
2022-09-04T07:03:33.065Z,26.8
2022-09-04T07:04:34.745Z,26.7
2022-09-04T07:05:36.714Z,26.5
2022-09-04T07:06:37.712Z,26.1
2022-09-04T07:07:38.695Z,25.5
2022-09-04T07:08:39.693Z,25
2022-09-04T07:09:40.733Z,24.7
2022-09-04T07:10:42.045Z,24.5
2022-09-04T07:11:44.742Z,24.4
2022-09-04T07:12:45.713Z,24.4
2022-09-04T07:13:46.713Z,24.3
2022-09-04T07:14:47.770Z,24.2
2022-09-04T07:15:48.845Z,24.1
2022-09-04T07:16:49.709Z,24
2022-09-04T07:17:53.512Z,23.8
2022-09-04T07:18:51.718Z,23.5
2022-09-04T07:19:52.725Z,23.1
2022-09-04T07:20:53.767Z,22.8
2022-09-04T07:21:54.729Z,22.4
2022-09-04T07:22:57.312Z,22.1
2022-09-04T07:24:00.923Z,22
2022-09-04T07:24:59.770Z,22.1
2022-09-04T07:26:00.753Z,22
2022-09-04T07:27:01.857Z,21.8
2022-09-04T07:28:11.059Z,21.7
2022-09-04T07:29:25.873Z,21.4
2022-09-04T07:30:23.785Z,21.5
2022-09-04T07:31:30.316Z,21.6
2022-09-04T07:32:36.527Z,21.6
2022-09-04T07:33:37.746Z,21.8
2022-09-04T07:34:38.779Z,22.1
2022-09-04T07:35:39.748Z,22.5
2022-09-04T07:36:40.796Z,23.1
2022-09-04T07:37:41.881Z,23.8
2022-09-04T07:38:43.747Z,24.2
2022-09-04T07:39:44.795Z,24.3
2022-09-04T07:40:45.813Z,24.7
2022-09-04T07:41:47.758Z,25.3
2022-09-04T07:42:53.054Z,25.6
2022-09-04T07:43:55.145Z,25.8
2022-09-04T07:44:55.752Z,25.7
2022-09-04T07:45:56.813Z,25.6
2022-09-04T07:46:57.768Z,25.6
2022-09-04T07:47:58.793Z,25.7
2022-09-04T07:48:59.788Z,25.9
2022-09-04T07:50:00.781Z,25.8
2022-09-04T07:51:02.904Z,25.6
2022-09-04T07:52:02.809Z,25.6
2022-09-04T07:53:06.341Z,25.8
2022-09-04T07:54:04.806Z,25.8
2022-09-04T07:55:05.780Z,25.7
2022-09-04T07:56:06.769Z,25.8
2022-09-04T07:57:07.805Z,26
2022-09-04T07:58:08.871Z,26.2
2022-09-04T07:59:09.839Z,26.2
2022-09-04T08:00:10.814Z,26.2
2022-09-04T08:01:11.805Z,26.6
2022-09-04T08:02:12.792Z,27.2
2022-09-04T08:03:13.799Z,27.8
2022-09-04T08:04:14.824Z,28
2022-09-04T08:05:16.961Z,28.2
2022-09-04T08:06:18.793Z,28.2
2022-09-04T08:07:19.802Z,28.2
2022-09-04T08:08:20.910Z,28.3
2022-09-04T08:09:21.829Z,28.7
2022-09-04T08:10:22.825Z,29.1
2022-09-04T08:11:23.806Z,29.5
2022-09-04T08:12:24.813Z,29.5
2022-09-04T08:13:25.812Z,29
2022-09-04T08:14:26.813Z,28.2
2022-09-04T08:15:28.370Z,27.7
2022-09-04T08:16:29.812Z,27.3
2022-09-04T08:17:30.813Z,27.4
2022-09-04T08:18:31.815Z,27.5
2022-09-04T08:19:32.815Z,27.8
2022-09-04T08:20:33.852Z,28.1
2022-09-04T08:21:34.814Z,28.1
2022-09-04T08:22:35.827Z,27.9
2022-09-04T08:23:36.839Z,27.6
2022-09-04T08:24:37.906Z,27.6
2022-09-04T08:25:38.864Z,27.9
2022-09-04T08:26:39.874Z,28.2
2022-09-04T08:27:44.203Z,28.3
2022-09-04T08:28:45.539Z,28.4
2022-09-04T08:29:42.872Z,28.4
2022-09-04T08:30:43.917Z,28.5
2022-09-04T08:31:44.892Z,28.4
2022-09-04T08:32:45.846Z,28.4
2022-09-04T08:33:46.842Z,28.6
2022-09-04T08:34:47.877Z,29
2022-09-04T08:35:48.884Z,29.6
2022-09-04T08:36:49.876Z,30
2022-09-04T08:37:50.857Z,30.4
2022-09-04T08:38:51.896Z,30.7
2022-09-04T08:39:52.976Z,31
2022-09-04T08:40:53.909Z,30.8
2022-09-04T08:41:54.862Z,30.4
2022-09-04T08:42:55.865Z,30.4
2022-09-04T08:43:56.856Z,30.6
2022-09-04T08:44:57.860Z,31
2022-09-04T08:45:58.979Z,31.4
2022-09-04T08:47:00.863Z,31.4
2022-09-04T08:48:01.906Z,31.1
2022-09-04T08:49:02.897Z,30.4
2022-09-04T08:50:03.920Z,29.7
2022-09-04T08:51:04.900Z,29
2022-09-04T08:52:05.909Z,28.7
2022-09-04T08:53:06.877Z,28.7
2022-09-04T08:54:07.876Z,28.7
2022-09-04T08:55:09.050Z,28.9
2022-09-04T08:56:10.875Z,29.5
2022-09-04T08:57:11.943Z,30.2
2022-09-04T08:58:12.881Z,30.6
2022-09-04T08:59:13.895Z,30.7
2022-09-04T09:00:14.918Z,30.8
2022-09-04T09:01:16.021Z,31
2022-09-04T09:02:16.988Z,31.3
2022-09-04T09:03:17.896Z,31.8
2022-09-04T09:04:18.897Z,32.1
2022-09-04T09:05:19.897Z,32.5
2022-09-04T09:06:20.905Z,32.9
2022-09-04T09:07:21.966Z,33.4
2022-09-04T09:08:23.427Z,33.5
2022-09-04T09:09:24.917Z,33.4
2022-09-04T09:10:25.965Z,32.8
2022-09-04T09:11:26.946Z,32
2022-09-04T09:12:27.935Z,31.4
2022-09-04T09:13:28.914Z,30.9
2022-09-04T09:14:29.972Z,30.6
2022-09-04T09:15:30.977Z,30.4
2022-09-04T09:16:31.971Z,30.5
2022-09-04T09:17:34.706Z,30.6
2022-09-04T09:18:40.417Z,30.7
2022-09-04T09:19:43.492Z,30.9
2022-09-04T09:20:47.569Z,31
2022-09-04T09:21:53.240Z,31.1
2022-09-04T09:22:55.605Z,31.4
2022-09-04T09:23:59.392Z,31.8
2022-09-04T09:25:03.334Z,32.2
2022-09-04T09:26:06.468Z,32.7
2022-09-04T09:27:09.511Z,32.4
2022-09-04T09:28:12.114Z,32
2022-09-04T09:29:15.503Z,31.6
2022-09-04T09:30:19.167Z,31.5
2022-09-04T09:31:21.423Z,31.4
2022-09-04T09:32:24.470Z,30.9
2022-09-04T09:33:26.947Z,30.1
2022-09-04T09:34:28.322Z,29.7
2022-09-04T09:35:31.587Z,29.8
2022-09-04T09:36:34.259Z,30.3
2022-09-04T09:37:36.173Z,30.3
2022-09-04T09:38:39.161Z,30.7
2022-09-04T09:39:42.443Z,31.3
2022-09-04T09:40:43.981Z,31.7
2022-09-04T09:41:45.037Z,31.9
2022-09-04T09:42:45.969Z,31.9
2022-09-04T09:43:46.988Z,32
2022-09-04T09:44:48.797Z,31.9
2022-09-04T09:45:50.041Z,31.8
2022-09-04T09:46:51.011Z,31.9
2022-09-04T09:47:51.975Z,32
2022-09-04T09:48:53.000Z,31.8
2022-09-04T09:49:53.978Z,31.3
2022-09-04T09:50:54.980Z,31
2022-09-04T09:51:56.040Z,30.9
2022-09-04T09:52:57.059Z,30.9
2022-09-04T09:53:57.987Z,30.7
2022-09-04T09:54:59.037Z,30.6
2022-09-04T09:56:00.030Z,31
2022-09-04T09:57:00.449Z,31.4
2022-09-04T09:58:01.379Z,31.9
2022-09-04T09:59:02.417Z,32.5
2022-09-04T10:00:04.172Z,33.1
2022-09-04T10:01:08.405Z,33.3
2022-09-04T10:02:07.120Z,33.1
2022-09-04T10:03:08.007Z,32.6
2022-09-04T10:04:09.070Z,31.8
2022-09-04T10:05:10.012Z,31.3
2022-09-04T10:06:11.016Z,31
2022-09-04T10:07:12.052Z,31.2
2022-09-04T10:08:13.008Z,31.7
2022-09-04T10:09:14.047Z,32.3
2022-09-04T10:10:15.051Z,32.5
2022-09-04T10:11:16.026Z,32.4
2022-09-04T10:12:17.033Z,32.4
2022-09-04T10:13:18.062Z,32
2022-09-04T10:14:22.081Z,31.4
2022-09-04T10:15:20.085Z,30.7
2022-09-04T10:16:21.066Z,30.3
2022-09-04T10:17:22.029Z,29.9
2022-09-04T10:18:23.034Z,29.6
2022-09-04T10:19:24.077Z,29.5
2022-09-04T10:20:25.290Z,29.6
2022-09-04T10:21:27.069Z,29.8
2022-09-04T10:22:28.029Z,29.8
2022-09-04T10:23:29.043Z,29.7
2022-09-04T10:24:30.121Z,29.6
2022-09-04T10:25:31.120Z,29.4
2022-09-04T10:26:32.078Z,29.4
2022-09-04T10:27:33.120Z,29.4
2022-09-04T10:28:34.047Z,29.4
2022-09-04T10:29:35.046Z,29.9
2022-09-04T10:30:36.104Z,30.5
2022-09-04T10:31:38.162Z,31.1
2022-09-04T10:32:40.907Z,31.7
2022-09-04T10:33:42.091Z,32.3
2022-09-04T10:34:43.060Z,32.7
2022-09-04T10:35:44.066Z,33.1
2022-09-04T10:36:45.083Z,33.3
2022-09-04T10:37:46.835Z,33.2
2022-09-04T10:38:48.088Z,33.2
2022-09-04T10:39:49.183Z,32.8
2022-09-04T10:40:51.512Z,32.8
2022-09-04T10:41:50.447Z,33
2022-09-04T10:42:52.193Z,33.4
2022-09-04T10:43:54.087Z,33.8
2022-09-04T10:44:54.480Z,34
2022-09-04T10:45:56.180Z,34.3
2022-09-04T10:46:56.461Z,34.5
2022-09-04T10:47:58.084Z,34.7
2022-09-04T10:48:58.471Z,34.9
2022-09-04T10:50:00.168Z,35
2022-09-04T10:51:01.090Z,34.9
2022-09-04T10:52:02.142Z,34.7
2022-09-04T10:53:03.145Z,34.4
2022-09-04T10:54:07.596Z,33.8
2022-09-04T10:55:06.186Z,33.2
2022-09-04T10:56:07.093Z,33
2022-09-04T10:57:08.101Z,33.1
2022-09-04T10:58:09.101Z,33.2
2022-09-04T10:59:10.104Z,33.5
2022-09-04T11:00:11.175Z,33.7
2022-09-04T11:01:12.227Z,33.9
2022-09-04T11:02:13.275Z,33.7
2022-09-04T11:03:14.114Z,33.3
2022-09-04T11:04:15.118Z,33.2
2022-09-04T11:05:16.140Z,33.2
2022-09-04T11:06:17.186Z,33.1
2022-09-04T11:07:18.143Z,33.2
2022-09-04T11:08:19.114Z,33.4
2022-09-04T11:09:20.125Z,33.3
2022-09-04T11:10:21.133Z,33.1
2022-09-04T11:11:22.164Z,33.1
2022-09-04T11:12:23.154Z,32.9
2022-09-04T11:13:24.278Z,32.7
2022-09-04T11:14:25.127Z,32.6
2022-09-04T11:15:26.240Z,32.4
2022-09-04T11:16:28.222Z,32.6
2022-09-04T11:17:29.138Z,32.9
2022-09-04T11:18:30.139Z,33
2022-09-04T11:19:31.144Z,33
2022-09-04T11:20:32.199Z,33
2022-09-04T11:21:33.152Z,32.9
2022-09-04T11:22:33.531Z,32.9
2022-09-04T11:23:34.506Z,33.2
2022-09-04T11:24:36.184Z,33.7
2022-09-04T11:25:37.184Z,34
2022-09-04T11:26:38.164Z,33.5
2022-09-04T11:27:39.173Z,33.1
2022-09-04T11:28:40.220Z,33.2
2022-09-04T11:29:41.181Z,33.1
2022-09-04T11:30:47.972Z,33
2022-09-04T11:31:42.620Z,33.1
2022-09-04T11:32:44.161Z,33.4
2022-09-04T11:33:44.590Z,33.5
2022-09-04T11:34:46.205Z,33.5
2022-09-04T11:35:47.162Z,33.7
2022-09-04T11:36:48.174Z,33.6
2022-09-04T11:37:48.557Z,33.2
2022-09-04T11:38:50.259Z,33.1
2022-09-04T11:39:50.662Z,33.3
2022-09-04T11:40:52.176Z,33.4
2022-09-04T11:41:52.565Z,33.5
2022-09-04T11:42:54.199Z,33.7
2022-09-04T11:43:55.250Z,33.6
2022-09-04T11:44:56.237Z,33.3
2022-09-04T11:45:57.255Z,33.2
2022-09-04T11:46:58.191Z,32.8
2022-09-04T11:47:59.224Z,32.3
2022-09-04T11:49:00.209Z,31.5
2022-09-04T11:50:01.256Z,31.1
2022-09-04T11:51:02.271Z,31.1
2022-09-04T11:52:03.228Z,31
2022-09-04T11:53:04.210Z,30.8
2022-09-04T11:54:05.236Z,30.5
2022-09-04T11:55:06.279Z,30.2
2022-09-04T11:56:07.284Z,30
2022-09-04T11:57:08.209Z,29.9
2022-09-04T11:58:09.260Z,30
2022-09-04T11:59:10.266Z,30.2
2022-09-04T12:00:11.300Z,30.4
2022-09-04T12:01:12.255Z,30.8
2022-09-04T12:07:18.264Z,31.9
2022-09-04T12:08:19.249Z,31.4
2022-09-04T12:09:20.236Z,31.3
2022-09-04T12:10:21.270Z,31.3
2022-09-04T12:11:22.249Z,31.1
2022-09-04T12:12:23.273Z,31.1
2022-09-04T12:13:24.244Z,31.4
2022-09-04T12:14:25.281Z,31.5
2022-09-04T12:15:26.260Z,31.3
2022-09-04T12:16:27.457Z,31.2
2022-09-04T12:17:29.348Z,31
2022-09-04T12:18:30.253Z,30.6
2022-09-04T12:19:31.253Z,30.5
2022-09-04T12:20:32.254Z,30.8
2022-09-04T12:21:34.303Z,31
2022-09-04T12:22:35.285Z,31.1
2022-09-04T12:23:36.265Z,31.2
2022-09-04T12:24:37.355Z,31.2
2022-09-04T12:25:39.308Z,31.2
2022-09-04T12:26:51.163Z,31.2
2022-09-04T12:27:41.275Z,31.2
2022-09-04T12:28:42.283Z,31.2
2022-09-04T12:29:43.286Z,31.1
2022-09-04T12:30:44.446Z,30.9
2022-09-04T12:31:46.324Z,30.7
2022-09-04T12:32:47.320Z,30.4
2022-09-04T12:33:48.277Z,30.2
2022-09-04T12:34:49.283Z,29.8
2022-09-04T12:35:50.314Z,29.5
2022-09-04T12:36:51.288Z,29.3
2022-09-04T12:37:52.286Z,29.5
2022-09-04T12:38:53.285Z,29.7
2022-09-04T12:39:54.300Z,29.5
2022-09-04T12:40:55.330Z,29.2
2022-09-04T12:41:56.316Z,29
2022-09-04T12:42:57.305Z,28.9
2022-09-04T12:43:58.294Z,28.9
2022-09-04T12:44:59.293Z,28.8
2022-09-04T12:46:00.526Z,28.7
2022-09-04T12:47:01.307Z,28.6
2022-09-04T12:48:02.453Z,28.6
2022-09-04T12:49:04.345Z,28.8
2022-09-04T12:50:05.350Z,29.1
2022-09-04T12:51:06.334Z,29.4
2022-09-04T12:52:07.375Z,29.5
2022-09-04T12:53:08.349Z,29.6
2022-09-04T12:54:09.314Z,29.6
2022-09-04T12:55:10.323Z,29.7
2022-09-04T12:56:11.345Z,29.7
2022-09-04T12:57:12.351Z,29.4
2022-09-04T12:58:13.319Z,29.3
2022-09-04T12:59:16.085Z,29.1
2022-09-04T13:00:15.334Z,29
2022-09-04T13:01:16.521Z,29.1
2022-09-04T13:02:17.520Z,29.1
2022-09-04T13:03:18.367Z,29.3
2022-09-04T13:04:19.350Z,29.7
2022-09-04T13:05:20.337Z,30
2022-09-04T13:06:21.406Z,30.5
2022-09-04T13:07:22.369Z,30.9
2022-09-04T13:08:23.333Z,30.8
2022-09-04T13:09:24.365Z,30.6
2022-09-04T13:10:25.345Z,30.5
2022-09-04T13:11:26.363Z,30
2022-09-04T13:12:27.369Z,29.4
2022-09-04T13:13:28.357Z,29
2022-09-04T13:14:29.360Z,28.5
2022-09-04T13:15:30.394Z,28
2022-09-04T13:16:31.433Z,27.6
2022-09-04T13:17:32.387Z,27.3
2022-09-04T13:18:33.538Z,27.4
2022-09-04T13:19:35.356Z,27.9
2022-09-04T13:20:35.754Z,28.4
2022-09-04T13:21:36.814Z,29.1
2022-09-04T13:22:38.368Z,29.9
2022-09-04T13:23:39.400Z,30.4
2022-09-04T13:24:43.667Z,30.8
2022-09-04T13:25:41.372Z,31.1
2022-09-04T13:26:42.380Z,31.3
2022-09-04T13:27:43.719Z,31.5
2022-09-04T13:28:45.409Z,31.9
2022-09-04T13:29:46.398Z,32.4
2022-09-04T13:30:47.415Z,32.6
2022-09-04T13:31:48.494Z,32.4
2022-09-04T13:32:49.414Z,32
2022-09-04T13:33:50.401Z,31.4
2022-09-04T13:34:51.407Z,30.7
2022-09-04T13:35:52.397Z,30.2
2022-09-04T13:36:53.383Z,29.6
2022-09-04T13:37:54.433Z,29.2
2022-09-04T13:38:55.395Z,29
2022-09-04T13:39:56.503Z,28.8
2022-09-04T13:40:57.440Z,28.8
2022-09-04T13:41:58.412Z,28.9
2022-09-04T13:42:59.404Z,29
2022-09-04T13:44:00.419Z,28.9
2022-09-04T13:45:01.912Z,29
2022-09-04T13:46:02.454Z,29.3
2022-09-04T13:47:03.509Z,29.5
2022-09-04T13:48:04.443Z,29.6